Soleil Weather Down

Unfortunately, due to a number of different issues, the weather site is temporarily down. Until and if, I am able to get these issues resolved I have provided the link to the nearby Metar stations at local airports. Thank you for your underatanding.

Nearby METAR Reports

 

KCNI - Canton/Cherokee, Georgia, USA
Distance from station: ENE 6mi, 10km
Updated: Mon, 19-Feb-2018 6:35pm EST
Overcast
Overcast
 Wind from ENE
Wind: ENE 6 mph , 9 km/h
Temperature: 59°F , 15°C
Dew Point: 59°F , 15°C
Humidity: 100%
Barometer: 30.31 inHg , 1026.4 hPa
Clouds: Overcast
Visibility: 7 miles , 11 km
Cloud details: Overcast 400 ft
2018/02/19 23:35 KCNI 192335Z AUTO 07005KT 7SM OVC004 15/15 A3031 RMK AO2
KRYY - Marietta Mccolum, Georgia, USA
Distance from station: SSW 18mi, 29km
Updated: Mon, 19-Feb-2018 6:48pm EST
Mist, Overcast
Mist, Overcast
 Wind from E
Wind: E 9 mph , 15 km/h
Temperature: 59°F , 15°C
Dew Point: 57°F , 14°C
Humidity: 94%
Barometer: 30.29 inHg , 1025.7 hPa
Summary: Mist
Clouds: Overcast
Visibility: 2 miles , 3 km
Cloud details: Overcast 400 ft
2018/02/19 23:48 KRYY 192348Z 10008KT 2SM BR OVC004 15/14 A3029 RMK AO2 SLP978 T01500144 10172 20150 53008
KVPC - Cartersville, Georgia, USA
Distance from station: WSW 22mi, 35km
Updated: Mon, 19-Feb-2018 6:37pm EST
Mostly cloudy
Mostly cloudy
 Wind from E
Wind: E 8 mph , 13 km/h
Temperature: 61°F , 16°C
Dew Point: 59°F , 15°C
Humidity: 94%
Barometer: 30.27 inHg , 1025.1 hPa
Clouds: Mostly cloudy
Visibility: 10 miles , 16 km
Cloud details: Mostly cloudy 800 ft
2018/02/19 23:37 KVPC 192337Z AUTO 09007KT 10SM BKN008 16/15 A3027 RMK AO2 T01560150 $
 
KMGE - Dobbins Afb/Mari, Georgia, USA
Distance from station: S 24mi, 39km
Updated: Mon, 19-Feb-2018 5:56pm EST
Mist, Overcast
Mist, Overcast
 Wind from E
Wind: E 9 mph , 15 km/h
Temperature: 61°F , 16°C
Dew Point: 59°F , 15°C
Humidity: 94%
Barometer: 30.28 inHg , 1025.4 hPa
Summary: Mist
Clouds: Overcast
Visibility: 6 miles , 10 km
Cloud details: Overcast 700 ft
2018/02/19 22:56 KMGE 192256Z 09008KT 6SM BR OVC007 16/15 A3028 RMK AO2A SLPNO $
KPDK - Peachtree/Dekalb, Georgia, USA
Distance from station: SSE 29mi, 47km
Updated: Mon, 19-Feb-2018 5:53pm EST
Mist, Overcast
Mist, Overcast
 Wind from varies
Wind: varies 5 mph , 7 km/h
Temperature: 61°F , 16°C
Dew Point: 57°F , 14°C
Humidity: 88%
Barometer: 30.28 inHg , 1025.4 hPa
Summary: Mist
Clouds: Overcast
Visibility: 5 miles , 8 km
Cloud details: Overcast 400 ft
2018/02/19 22:53 KPDK 192253Z VRB04KT 5SM BR OVC004 16/14 A3028 RMK AO2 SLP251 T01560144
KFTY - Atlanta/Fulton, Georgia, USA
Distance from station: S 34mi, 54km
Updated: Mon, 19-Feb-2018 5:53pm EST
Mostly cloudy
Mostly cloudy
 Wind from NE
Wind: NE 10 mph , 17 km/h
Temperature: 66°F , 19°C
Dew Point: 63°F , 17°C
Humidity: 88%
Barometer: 30.26 inHg , 1024.7 hPa
Clouds: Mostly cloudy
Visibility: 10 miles , 16 km
Cloud details: Few Clouds 5500 ft
Mostly cloudy 7000 ft
2018/02/19 22:53 KFTY 192253Z 04009KT 10SM FEW055 BKN070 19/17 A3026 RMK AO2 SLP242 T01890167 $
 
KPUJ - Atlanta/Paulding, Georgia, USA
Distance from station: SW 34mi, 55km
Updated: Mon, 19-Feb-2018 6:35pm EST
Haze, Mostly cloudy
Haze, Mostly cloudy
 Wind from S
Wind: S 5 mph , 7 km/h
Temperature: 73°F , 23°C
Dew Point: 61°F , 16°C
Humidity: 65%
Barometer: 30.27 inHg , 1025.1 hPa
Summary: Haze
Clouds: Mostly cloudy
Visibility: 5 miles , 8 km
Cloud details: Mostly cloudy 6500 ft
2018/02/19 23:35 KPUJ 192335Z AUTO 19004KT 5SM HZ BKN065 23/16 A3027 RMK AO2
KDNN - Dalton, Georgia, USA
Distance from station: NW 37mi, 59km
Updated: Mon, 19-Feb-2018 6:35pm EST
Mostly cloudy
Mostly cloudy
 Wind from SSE
Wind: SSE 6 mph , 9 km/h
Temperature: 63°F , 17°C
Dew Point: 59°F , 15°C
Humidity: 88%
Barometer: 30.26 inHg , 1024.7 hPa
Clouds: Mostly cloudy
Visibility: 10 miles , 16 km
Cloud details: Mostly cloudy 5500 ft
2018/02/19 23:35 KDNN 192335Z AUTO 16005KT 10SM BKN055 17/15 A3026 RMK AO2
KLZU - Lawrenceville, Georgia, USA
Distance from station: ESE 37mi, 59km
Updated: Mon, 19-Feb-2018 5:56pm EST
Fog, Overcast
Fog, Overcast
 Wind from ENE
Wind: ENE 7 mph , 11 km/h
Temperature: 57°F , 14°C
Dew Point: 55°F , 13°C
Humidity: 94%
Barometer: 30.31 inHg , 1026.4 hPa
Summary: Fog
Clouds: Overcast
Visibility: 1/2 mile , 2 km
Cloud details: Overcast 200 ft
2018/02/19 22:56 KLZU 192256Z 06006KT 1/2SM FG OVC002 14/13 A3031 RMK AO2 SLP261 T01390133 $
 
KRMG - Rome, Georgia, USA
Distance from station: W 38mi, 61km
Updated: Mon, 19-Feb-2018 6:20pm EST
Partly cloudy
Partly cloudy
 Wind from varies
Wind: varies 5 mph , 7 km/h
Temperature: 64°F , 18°C
Dew Point: 61°F , 16°C
Humidity: 88%
Barometer: 30.24 inHg , 1024 hPa
Clouds: Partly cloudy
Visibility: 10 miles , 16 km
Cloud details: Partly cloudy 1500 ft
2018/02/19 23:20 KRMG 192320Z AUTO VRB04KT 10SM SCT015 18/16 A3024 RMK AO2 T01830161
KGVL - Gainesville, Georgia, USA
Distance from station: E 39mi, 62km
Updated: Mon, 19-Feb-2018 5:53pm EST
Fog, Overcast
Fog, Overcast
 Wind from E
Wind: E 9 mph , 15 km/h
Temperature: 55°F , 13°C
Dew Point: 55°F , 13°C
Humidity: 100%
Barometer: 30.33 inHg , 1027.1 hPa
Summary: Fog
Clouds: Overcast
Visibility: 1/2 mile , 2 km
Cloud details: Overcast 200 ft
2018/02/19 22:53 KGVL 192253Z AUTO 08008KT 1/2SM FG VV002 13/13 A3033 RMK AO2 SLP266 T01280128
KATL - Atlanta, Georgia, USA
Distance from station: S 44mi, 71km
Updated: Mon, 19-Feb-2018 5:52pm EST
Mostly cloudy
Mostly cloudy
 Wind from SSE
Wind: SSE 7 mph , 11 km/h
Temperature: 73°F , 23°C
Dew Point: 57°F , 14°C
Humidity: 57%
Barometer: 30.26 inHg , 1024.7 hPa
Clouds: Mostly cloudy
Visibility: 10 miles , 16 km
Cloud details: Few Clouds 4500 ft
Partly cloudy 6000 ft
Mostly cloudy 25000 ft
2018/02/19 22:52 KATL 192252Z 15006KT 10SM FEW045 SCT060 BKN250 23/14 A3026 RMK AO2 SLP241 T02330144